createdAt,value
2022-08-04T00:01:33.432Z,100653.06
2022-08-04T00:04:13.065Z,100657.38
2022-08-04T00:07:04.776Z,100664.19
2022-08-04T00:09:48.666Z,100661.78
2022-08-04T00:12:17.365Z,100661.66
2022-08-04T00:14:50.686Z,100661.34
2022-08-04T00:17:21.608Z,100658.47
2022-08-04T00:19:53.561Z,100671.84
2022-08-04T00:22:25.973Z,100665.75
2022-08-04T00:24:54.034Z,100661.75
2022-08-04T00:27:21.327Z,100672.63
2022-08-04T00:29:48.798Z,100688.31
2022-08-04T00:32:34.597Z,100682.28
2022-08-04T00:35:02.178Z,100685.84
2022-08-04T00:37:29.269Z,100684.38
2022-08-04T00:39:57.303Z,100689.56
2022-08-04T00:42:34.679Z,100682.28
2022-08-04T00:45:04.467Z,100688.13
2022-08-04T00:47:52.045Z,100689.16
2022-08-04T00:50:44.673Z,100681.50
2022-08-04T00:53:28.707Z,100688.47
2022-08-04T00:56:20.916Z,100698.38
2022-08-04T00:58:53.820Z,100685.16
2022-08-04T01:02:02.035Z,100693.63
2022-08-04T01:05:04.000Z,100690.00
2022-08-04T01:07:31.092Z,100694.84
2022-08-04T01:10:00.863Z,100696.47
2022-08-04T01:12:52.290Z,100692.72
2022-08-04T01:15:59.377Z,100691.25
2022-08-04T01:18:48.749Z,100696.88
2022-08-04T01:21:31.155Z,100695.56
2022-08-04T01:24:31.290Z,100701.78
2022-08-04T01:27:04.328Z,100698.38
2022-08-04T01:29:47.349Z,100694.72
2022-08-04T01:32:48.060Z,100688.50
2022-08-04T01:35:46.607Z,100683.84
2022-08-04T01:38:21.767Z,100685.03
2022-08-04T01:40:53.782Z,100678.34
2022-08-04T01:43:21.580Z,100680.56
2022-08-04T01:45:57.885Z,100677.34
2022-08-04T01:48:26.694Z,100674.09
2022-08-04T01:50:57.703Z,100681.34
2022-08-04T01:53:31.357Z,100672.03
2022-08-04T01:55:58.883Z,100671.56
2022-08-04T01:58:30.087Z,100663.91
2022-08-04T02:01:08.325Z,100661.41
2022-08-04T02:04:21.027Z,100659.41
2022-08-04T02:06:32.462Z,100658.88
2022-08-04T02:09:17.950Z,100661.63
2022-08-04T02:12:16.195Z,100663.63
2022-08-04T02:14:56.468Z,100656.97
2022-08-04T02:17:30.307Z,100658.03
2022-08-04T02:20:16.303Z,100662.50
2022-08-04T02:22:58.678Z,100666.13
2022-08-04T02:25:27.999Z,100655.53
2022-08-04T02:28:15.291Z,100655.22
2022-08-04T02:31:15.777Z,100659.28
2022-08-04T02:33:47.111Z,100658.97
2022-08-04T02:36:39.693Z,100659.91
2022-08-04T02:39:09.107Z,100661.81
2022-08-04T02:41:37.110Z,100663.84
2022-08-04T02:44:09.469Z,100663.06
2022-08-04T02:46:39.295Z,100663.22
2022-08-04T02:49:10.599Z,100663.28
2022-08-04T02:51:41.586Z,100659.31
2022-08-04T02:54:09.798Z,100663.06
2022-08-04T02:56:39.684Z,100666.50
2022-08-04T02:59:12.156Z,100664.78
2022-08-04T03:01:56.656Z,100672.28
2022-08-04T03:04:35.582Z,100659.53
2022-08-04T03:07:29.518Z,100651.59
2022-08-04T03:10:06.657Z,100664.19
2022-08-04T03:12:58.894Z,100660.28
2022-08-04T03:15:59.929Z,100656.22
2022-08-04T03:19:04.053Z,100669.56
2022-08-04T03:21:33.509Z,100670.25
2022-08-04T03:24:10.341Z,100664.03
2022-08-04T03:27:01.575Z,100670.66
2022-08-04T03:30:05.747Z,100666.06
2022-08-04T03:32:47.970Z,100672.06
2022-08-04T03:35:53.875Z,100674.53
2022-08-04T03:38:57.605Z,100673.44
2022-08-04T03:42:03.159Z,100677.41
2022-08-04T03:44:52.519Z,100676.44
2022-08-04T03:47:42.193Z,100674.19
2022-08-04T03:50:32.970Z,100680.09
2022-08-04T03:53:20.938Z,100683.63
2022-08-04T03:56:09.463Z,100684.13
2022-08-04T03:58:51.702Z,100678.19
2022-08-04T04:01:57.845Z,100685.50
2022-08-04T04:04:41.894Z,100688.38
2022-08-04T04:07:36.339Z,100687.72
2022-08-04T04:10:22.665Z,100693.81
2022-08-04T04:13:09.712Z,100696.16
2022-08-04T04:16:04.337Z,100694.03
2022-08-04T04:18:50.670Z,100689.09
2022-08-04T04:21:52.855Z,100693.09
2022-08-04T04:25:04.478Z,100693.25
2022-08-04T04:27:42.894Z,100688.63
2022-08-04T04:30:28.120Z,100686.63
2022-08-04T04:32:55.072Z,100688.66
2022-08-04T04:35:59.711Z,100697.13
2022-08-04T04:39:09.324Z,100691.94
2022-08-04T04:41:56.761Z,100695.22
2022-08-04T04:45:00.966Z,100689.72
2022-08-04T04:48:10.605Z,100693.22
2022-08-04T04:51:06.821Z,100697.59
2022-08-04T04:53:41.555Z,100703.22
2022-08-04T04:56:23.224Z,100696.47
2022-08-04T04:58:53.033Z,100690.19
2022-08-04T05:01:34.652Z,100700.06
2022-08-04T05:04:16.896Z,100693.75
2022-08-04T05:07:26.815Z,100688.34
2022-08-04T05:10:34.244Z,100686.72
2022-08-04T05:14:32.252Z,100690.91
2022-08-04T05:16:00.356Z,100693.41
2022-08-04T05:18:30.937Z,100697.31
2022-08-04T05:21:19.777Z,100693.97
2022-08-04T05:23:54.964Z,100701.63
2022-08-04T05:26:30.115Z,100697.97
2022-08-04T05:29:00.065Z,100702.06
2022-08-04T05:31:34.851Z,100710.28
2022-08-04T05:34:11.364Z,100701.72
2022-08-04T05:36:44.252Z,100706.81
2022-08-04T05:39:15.991Z,100701.81
2022-08-04T05:41:48.106Z,100695.91
2022-08-04T05:44:23.993Z,100700.00
2022-08-04T05:46:55.253Z,100702.13
2022-08-04T05:49:28.616Z,100694.84
2022-08-04T05:52:01.142Z,100687.19
2022-08-04T05:54:29.483Z,100695.34
2022-08-04T05:56:57.354Z,100703.06
2022-08-04T05:59:26.854Z,100702.44
2022-08-04T06:01:57.642Z,100704.66
2022-08-04T06:04:32.381Z,100701.28
2022-08-04T06:06:59.554Z,100701.78
2022-08-04T06:09:27.042Z,100697.25
2022-08-04T06:12:03.325Z,100698.59
2022-08-04T06:14:40.569Z,100692.03
2022-08-04T06:18:32.355Z,100699.91
2022-08-04T06:20:19.003Z,100694.66
2022-08-04T06:22:48.020Z,100694.13
2022-08-04T06:25:20.589Z,100695.34
2022-08-04T06:27:49.868Z,100687.50
2022-08-04T06:30:19.386Z,100683.41
2022-08-04T06:32:49.764Z,100689.00
2022-08-04T06:35:18.496Z,100691.06
2022-08-04T06:37:49.004Z,100684.66
2022-08-04T06:40:31.839Z,100689.31
2022-08-04T06:43:02.438Z,100690.31
2022-08-04T06:45:30.326Z,100681.97
2022-08-04T06:47:58.574Z,100683.41
2022-08-04T06:51:29.518Z,100683.22
2022-08-04T06:53:14.279Z,100685.03
2022-08-04T06:55:43.758Z,100693.22
2022-08-04T06:58:11.489Z,100696.34
2022-08-04T07:00:40.827Z,100687.53
2022-08-04T07:03:08.128Z,100688.28
2022-08-04T07:05:36.443Z,100682.56
2022-08-04T07:08:04.800Z,100690.00
2022-08-04T07:10:32.045Z,100689.19
2022-08-04T07:13:01.656Z,100686.97
2022-08-04T07:15:29.518Z,100684.16
2022-08-04T07:18:02.069Z,100674.97
2022-08-04T07:20:34.518Z,100683.13
2022-08-04T07:23:06.631Z,100690.41
2022-08-04T07:25:59.492Z,100686.50
2022-08-04T07:28:27.143Z,100669.88
2022-08-04T07:30:55.802Z,100674.53
2022-08-04T07:33:23.386Z,100679.69
2022-08-04T07:36:05.199Z,100673.25
2022-08-04T07:38:48.729Z,100671.13
2022-08-04T07:41:36.034Z,100664.25
2022-08-04T07:44:04.352Z,100666.34
2022-08-04T07:46:31.835Z,100667.66
2022-08-04T07:49:00.683Z,100673.03
2022-08-04T07:51:29.229Z,100661.78
2022-08-04T07:53:57.419Z,100666.56
2022-08-04T07:56:28.719Z,100669.72
2022-08-04T07:58:56.252Z,100672.59
2022-08-04T08:01:24.808Z,100663.84
2022-08-04T08:03:55.149Z,100669.63
2022-08-04T08:06:30.836Z,100665.00
2022-08-04T08:09:12.184Z,100667.66
2022-08-04T08:12:38.043Z,100668.97
2022-08-04T08:14:35.890Z,100670.06
2022-08-04T08:17:04.462Z,100667.94
2022-08-04T08:19:33.026Z,100666.56
2022-08-04T08:22:01.782Z,100662.03
2022-08-04T08:24:35.555Z,100675.34
2022-08-04T08:27:07.189Z,100671.00
2022-08-04T08:29:35.739Z,100668.44
2022-08-04T08:32:08.847Z,100672.16
2022-08-04T08:34:37.882Z,100662.72
2022-08-04T08:37:13.351Z,100665.13
2022-08-04T08:39:54.440Z,100670.06
2022-08-04T08:42:42.307Z,100667.13
2022-08-04T08:45:46.141Z,100666.72
2022-08-04T08:48:33.525Z,100658.91
2022-08-04T08:51:31.770Z,100660.28
2022-08-04T08:54:30.161Z,100661.63
2022-08-04T08:57:09.062Z,100668.22
2022-08-04T09:00:31.596Z,100667.41
2022-08-04T09:03:17.508Z,100655.13
2022-08-04T09:05:54.771Z,100654.00
2022-08-04T09:08:58.482Z,100655.16
2022-08-04T09:11:33.122Z,100647.19
2022-08-04T09:14:16.315Z,100639.78
2022-08-04T09:16:52.238Z,100648.38
2022-08-04T09:19:39.075Z,100642.69
2022-08-04T09:22:16.509Z,100646.50
2022-08-04T09:25:13.907Z,100629.34
2022-08-04T09:27:55.445Z,100635.66
2022-08-04T09:30:32.894Z,100642.38
2022-08-04T09:33:45.601Z,100635.72
2022-08-04T09:37:00.360Z,100634.91
2022-08-04T09:39:41.143Z,100632.25
2022-08-04T09:42:29.258Z,100630.75
2022-08-04T09:45:06.524Z,100636.81
2022-08-04T09:47:59.135Z,100646.09
2022-08-04T09:50:41.105Z,100644.91
2022-08-04T09:53:20.500Z,100637.97
2022-08-04T09:55:54.837Z,100635.06
2022-08-04T09:58:51.694Z,100625.88
2022-08-04T10:01:23.905Z,100626.47
2022-08-04T10:04:01.774Z,100633.88
2022-08-04T10:06:42.358Z,100628.78
2022-08-04T10:09:18.439Z,100632.91
2022-08-04T10:12:23.629Z,100628.63
2022-08-04T10:15:11.224Z,100624.06
2022-08-04T10:17:52.539Z,100627.19
2022-08-04T10:20:35.961Z,100630.31
2022-08-04T10:23:18.331Z,100630.66
2022-08-04T10:26:14.921Z,100636.06
2022-08-04T10:28:51.887Z,100638.06
2022-08-04T10:31:33.538Z,100630.94
2022-08-04T10:34:12.345Z,100634.31
2022-08-04T10:36:56.952Z,100631.91
2022-08-04T10:39:43.703Z,100628.72
2022-08-04T10:42:29.751Z,100624.91
2022-08-04T10:45:18.162Z,100620.84
2022-08-04T10:48:14.128Z,100623.00
2022-08-04T10:50:55.405Z,100628.56
2022-08-04T10:53:27.044Z,100626.56
2022-08-04T10:56:07.288Z,100620.41
2022-08-04T10:58:47.366Z,100625.31
2022-08-04T11:02:01.051Z,100620.56
2022-08-04T11:04:44.931Z,100600.59
2022-08-04T11:07:12.949Z,100608.03
2022-08-04T11:09:42.968Z,100600.69
2022-08-04T11:12:29.590Z,100601.75
2022-08-04T11:15:02.598Z,100611.94
2022-08-04T11:18:16.962Z,100609.00
2022-08-04T11:21:20.150Z,100619.78
2022-08-04T11:24:04.469Z,100625.63
2022-08-04T11:27:12.484Z,100625.06
2022-08-04T11:30:07.362Z,100630.34
2022-08-04T11:33:13.148Z,100626.34
2022-08-04T11:36:04.850Z,100620.22
2022-08-04T11:39:04.871Z,100632.44
2022-08-04T11:41:49.617Z,100617.66
2022-08-04T11:45:23.963Z,100611.69
2022-08-04T11:48:06.947Z,100609.94
2022-08-04T11:50:54.108Z,100612.19
2022-08-04T11:53:25.728Z,100607.00
2022-08-04T11:56:06.970Z,100610.66
2022-08-04T11:58:38.382Z,100617.56
2022-08-04T12:01:14.597Z,100623.75
2022-08-04T12:04:01.193Z,100627.03
2022-08-04T12:07:31.329Z,100619.53
2022-08-04T12:10:40.843Z,100624.47
2022-08-04T12:13:32.756Z,100622.16
2022-08-04T12:16:44.798Z,100609.19
2022-08-04T12:20:03.354Z,100623.84
2022-08-04T12:22:36.091Z,100619.44
2022-08-04T12:25:35.152Z,100621.28
2022-08-04T12:28:22.302Z,100618.06
2022-08-04T12:31:01.385Z,100614.31
2022-08-04T12:34:04.384Z,100615.41
2022-08-04T12:36:48.034Z,100615.69
2022-08-04T12:39:23.589Z,100612.06
2022-08-04T12:41:54.151Z,100605.25
2022-08-04T12:44:36.592Z,100597.84
2022-08-04T12:47:26.894Z,100611.16
2022-08-04T12:50:08.422Z,100616.63
2022-08-04T12:53:34.535Z,100602.84
2022-08-04T12:56:26.766Z,100604.53
2022-08-04T12:59:01.128Z,100603.88
2022-08-04T13:02:06.097Z,100602.06
2022-08-04T13:04:29.541Z,100607.38
2022-08-04T13:07:15.743Z,100603.31
2022-08-04T13:09:43.591Z,100611.00
2022-08-04T13:12:32.630Z,100605.22
2022-08-04T13:15:17.719Z,100603.94
2022-08-04T13:17:51.998Z,100593.19
2022-08-04T13:20:29.947Z,100606.38
2022-08-04T13:23:03.989Z,100604.28
2022-08-04T13:26:42.631Z,100605.00
2022-08-04T13:28:24.841Z,100598.59
2022-08-04T13:31:01.212Z,100600.34
2022-08-04T13:33:38.476Z,100598.22
2022-08-04T13:36:08.402Z,100608.09
2022-08-04T13:38:38.691Z,100605.41
2022-08-04T13:41:08.074Z,100606.13
2022-08-04T13:44:19.695Z,100608.81
2022-08-04T13:46:50.864Z,100605.41
2022-08-04T13:49:43.135Z,100599.25
2022-08-04T13:52:10.610Z,100606.84
2022-08-04T13:54:47.239Z,100607.97
2022-08-04T14:00:42.976Z,100608.03
2022-08-04T14:03:53.372Z,100611.47
2022-08-04T14:06:29.005Z,100611.53
2022-08-04T14:09:02.236Z,100602.31
2022-08-04T14:12:09.922Z,100600.59
2022-08-04T14:14:33.858Z,100603.63
2022-08-04T14:17:20.403Z,100598.03
2022-08-04T14:20:01.937Z,100597.88
2022-08-04T14:22:29.062Z,100598.41
2022-08-04T14:25:16.283Z,100596.34
2022-08-04T14:27:56.097Z,100594.06
2022-08-04T14:30:37.698Z,100605.28
2022-08-04T14:34:00.924Z,100616.50
2022-08-04T14:36:04.009Z,100600.81
2022-08-04T14:38:51.899Z,100605.75
2022-08-04T14:41:29.011Z,100591.34
2022-08-04T14:44:03.732Z,100595.56
2022-08-04T14:46:36.366Z,100593.53
2022-08-04T14:49:10.152Z,100604.44
2022-08-04T14:51:45.516Z,100593.88
2022-08-04T14:54:18.508Z,100601.09
2022-08-04T14:56:55.119Z,100592.63
2022-08-04T14:59:22.705Z,100599.28
2022-08-04T15:02:00.473Z,100602.97
2022-08-04T15:04:30.091Z,100613.31
2022-08-04T15:06:57.429Z,100612.50
2022-08-04T15:09:24.788Z,100598.78
2022-08-04T15:11:51.878Z,100593.41
2022-08-04T15:14:37.317Z,100594.06
2022-08-04T15:17:11.974Z,100593.41
2022-08-04T15:19:40.639Z,100600.75
2022-08-04T15:22:23.303Z,100593.03
2022-08-04T15:24:55.125Z,100598.13
2022-08-04T15:27:27.514Z,100598.97
2022-08-04T15:30:02.068Z,100594.94
2022-08-04T15:32:35.126Z,100593.41
2022-08-04T15:35:13.531Z,100593.84
2022-08-04T15:37:52.566Z,100598.84
2022-08-04T15:40:33.024Z,100600.19
2022-08-04T15:43:55.523Z,100590.66
2022-08-04T15:46:46.912Z,100595.09
2022-08-04T15:49:24.853Z,100593.50
2022-08-04T15:52:12.547Z,100596.75
2022-08-04T15:54:42.562Z,100593.72
2022-08-04T15:58:00.235Z,100592.44
2022-08-04T16:00:28.055Z,100603.66
2022-08-04T16:02:56.053Z,100606.78
2022-08-04T16:05:23.532Z,100600.19
2022-08-04T16:08:08.331Z,100605.13
2022-08-04T16:10:40.449Z,100602.75
2022-08-04T16:13:16.423Z,100601.50
2022-08-04T16:16:03.345Z,100605.16
2022-08-04T16:18:30.642Z,100598.16
2022-08-04T16:21:02.536Z,100603.34
2022-08-04T16:24:14.175Z,100597.72
2022-08-04T16:26:46.334Z,100600.38
2022-08-04T16:29:24.005Z,100597.41
2022-08-04T16:32:06.205Z,100601.22
2022-08-04T16:34:56.447Z,100605.31
2022-08-04T16:37:30.228Z,100606.28
2022-08-04T16:40:37.576Z,100610.72
2022-08-04T16:43:13.678Z,100602.94
2022-08-04T16:46:15.854Z,100614.78
2022-08-04T16:49:06.374Z,100615.44
2022-08-04T16:51:33.526Z,100622.09
2022-08-04T16:54:05.522Z,100624.34
2022-08-04T16:56:35.209Z,100623.53
2022-08-04T16:59:09.953Z,100630.69
2022-08-04T17:01:47.895Z,100636.06
2022-08-04T17:04:15.927Z,100638.13
2022-08-04T17:06:46.499Z,100642.78
2022-08-04T17:09:18.377Z,100643.38
2022-08-04T17:11:46.976Z,100641.25
2022-08-04T17:14:14.174Z,100635.94
2022-08-04T17:16:43.202Z,100629.91
2022-08-04T17:19:24.452Z,100631.56
2022-08-04T17:22:02.842Z,100634.31
2022-08-04T17:24:38.302Z,100638.78
2022-08-04T17:28:19.406Z,100653.75
2022-08-04T17:29:53.619Z,100647.41
2022-08-04T17:32:22.771Z,100643.97
2022-08-04T17:34:52.276Z,100651.25
2022-08-04T17:37:38.308Z,100650.44
2022-08-04T17:40:32.798Z,100648.22
2022-08-04T17:44:01.594Z,100653.66
2022-08-04T17:46:35.903Z,100655.47
2022-08-04T17:49:12.374Z,100655.19
2022-08-04T17:52:04.874Z,100664.75
2022-08-04T17:54:43.609Z,100663.00
2022-08-04T17:57:22.301Z,100668.41
2022-08-04T17:59:58.849Z,100667.22
2022-08-04T18:02:32.483Z,100669.16
2022-08-04T18:05:11.711Z,100668.66
2022-08-04T18:08:34.793Z,100679.41
2022-08-04T18:10:55.537Z,100680.72
2022-08-04T18:13:26.234Z,100678.22
2022-08-04T18:16:04.569Z,100673.44
2022-08-04T18:18:40.191Z,100680.78
2022-08-04T18:21:16.235Z,100686.78
2022-08-04T18:23:50.990Z,100677.16
2022-08-04T18:26:23.743Z,100686.78
2022-08-04T18:28:51.588Z,100673.88
2022-08-04T18:31:18.726Z,100682.03
2022-08-04T18:33:59.034Z,100684.09
2022-08-04T18:36:36.982Z,100684.34
2022-08-04T18:39:13.284Z,100682.94
2022-08-04T18:42:02.214Z,100688.69
2022-08-04T18:44:32.662Z,100684.84
2022-08-04T18:47:23.508Z,100699.66
2022-08-04T18:51:00.231Z,100704.63
2022-08-04T18:52:42.167Z,100694.19
2022-08-04T18:55:55.305Z,100692.94
2022-08-04T18:58:07.261Z,100692.03
2022-08-04T19:00:38.923Z,100700.00
2022-08-04T19:03:16.447Z,100684.38
2022-08-04T19:05:49.301Z,100693.75
2022-08-04T19:08:35.022Z,100686.56
2022-08-04T19:11:28.736Z,100680.25
2022-08-04T19:13:58.060Z,100687.69
2022-08-04T19:16:30.386Z,100679.94
2022-08-04T19:18:58.652Z,100683.19
2022-08-04T19:22:00.317Z,100687.03
2022-08-04T19:24:32.692Z,100674.91
2022-08-04T19:27:06.486Z,100675.47
2022-08-04T19:29:40.821Z,100678.09
2022-08-04T19:32:15.054Z,100673.69
2022-08-04T19:34:47.455Z,100677.47
2022-08-04T19:37:56.661Z,100672.34
2022-08-04T19:40:09.582Z,100678.00
2022-08-04T19:42:38.018Z,100675.69
2022-08-04T19:45:06.443Z,100673.16
2022-08-04T19:48:21.577Z,100675.50
2022-08-04T19:50:23.642Z,100671.84
2022-08-04T19:52:52.722Z,100675.25
2022-08-04T19:55:22.203Z,100680.28
2022-08-04T19:57:53.322Z,100688.53
2022-08-04T20:00:34.152Z,100672.72
2022-08-04T20:03:11.526Z,100673.97
2022-08-04T20:05:54.927Z,100668.19
2022-08-04T20:08:24.448Z,100671.16
2022-08-04T20:10:54.659Z,100669.56
2022-08-04T20:13:22.301Z,100673.97
2022-08-04T20:15:57.561Z,100667.09
2022-08-04T20:18:35.770Z,100668.94
2022-08-04T20:21:19.557Z,100665.66
2022-08-04T20:23:52.624Z,100667.44
2022-08-04T20:26:20.535Z,100653.56
2022-08-04T20:28:52.573Z,100669.44
2022-08-04T20:31:23.039Z,100671.22
2022-08-04T20:33:58.719Z,100663.06
2022-08-04T20:36:26.315Z,100668.81
2022-08-04T20:38:54.653Z,100673.16
2022-08-04T20:41:22.341Z,100672.09
2022-08-04T20:43:49.679Z,100674.28
2022-08-04T20:49:07.051Z,100663.66
2022-08-04T20:51:39.770Z,100662.84
2022-08-04T20:54:16.093Z,100666.47
2022-08-04T20:56:50.884Z,100670.97
2022-08-04T20:59:19.469Z,100667.53
2022-08-04T21:01:49.585Z,100669.72
2022-08-04T21:04:48.717Z,100672.44
2022-08-04T21:07:16.697Z,100663.09
2022-08-04T21:09:50.944Z,100658.00
2022-08-04T21:12:29.095Z,100665.03
2022-08-04T21:15:13.443Z,100656.84
2022-08-04T21:17:58.456Z,100658.00
2022-08-04T21:20:33.635Z,100656.75
2022-08-04T21:23:05.063Z,100651.44
2022-08-04T21:25:32.561Z,100649.44
2022-08-04T21:28:10.505Z,100653.09
2022-08-04T21:30:54.576Z,100651.41
2022-08-04T21:33:49.913Z,100654.28
2022-08-04T21:36:43.902Z,100647.13
2022-08-04T21:42:38.068Z,100648.31
2022-08-04T21:45:09.927Z,100654.06
2022-08-04T21:47:46.624Z,100650.16
2022-08-04T21:50:20.085Z,100648.53
2022-08-04T21:52:49.118Z,100652.53
2022-08-04T21:55:16.872Z,100648.22
2022-08-04T21:57:46.071Z,100649.53
2022-08-04T22:00:18.376Z,100644.22
2022-08-04T22:03:03.866Z,100641.44
2022-08-04T22:05:32.802Z,100643.59
2022-08-04T22:08:00.047Z,100643.28
2022-08-04T22:10:32.338Z,100643.59
2022-08-04T22:13:06.930Z,100643.88
2022-08-04T22:16:04.550Z,100647.56
2022-08-04T22:18:24.552Z,100640.63
2022-08-04T22:20:55.005Z,100638.03
2022-08-04T22:23:24.367Z,100639.50
2022-08-04T22:25:55.779Z,100638.06
2022-08-04T22:28:28.134Z,100635.28
2022-08-04T22:30:57.044Z,100635.78
2022-08-04T22:33:23.992Z,100639.41
2022-08-04T22:36:13.263Z,100633.84
2022-08-04T22:38:48.563Z,100635.25
2022-08-04T22:41:22.009Z,100632.22
2022-08-04T22:44:01.012Z,100632.06
2022-08-04T22:46:30.398Z,100637.69
2022-08-04T22:48:57.666Z,100631.09
2022-08-04T22:51:27.158Z,100629.03
2022-08-04T22:53:54.394Z,100632.66
2022-08-04T22:56:37.865Z,100629.91
2022-08-04T22:59:05.987Z,100631.97
2022-08-04T23:01:59.803Z,100637.34
2022-08-04T23:04:23.708Z,100638.38
2022-08-04T23:06:50.876Z,100632.75
2022-08-04T23:09:17.766Z,100626.84
2022-08-04T23:11:45.847Z,100626.69
2022-08-04T23:14:17.361Z,100629.28
2022-08-04T23:16:44.369Z,100627.66
2022-08-04T23:19:15.175Z,100631.25
2022-08-04T23:21:47.958Z,100629.19
2022-08-04T23:24:29.706Z,100630.56
2022-08-04T23:27:00.583Z,100622.81
2022-08-04T23:29:28.031Z,100620.56
2022-08-04T23:32:14.962Z,100622.25
2022-08-04T23:34:47.380Z,100623.59
2022-08-04T23:37:14.360Z,100616.69
2022-08-04T23:40:28.118Z,100621.06
2022-08-04T23:42:30.372Z,100613.66
2022-08-04T23:44:57.353Z,100611.94
2022-08-04T23:48:16.387Z,100615.28
2022-08-04T23:50:12.145Z,100614.03
2022-08-04T23:52:39.216Z,100605.66
2022-08-04T23:55:10.318Z,100611.63
2022-08-04T23:58:05.806Z,100607.91
